createdAt,value
2022-08-28T00:00:43.237Z,99166.88
2022-08-28T00:03:11.372Z,99159.66
2022-08-28T00:05:39.938Z,99156.84
2022-08-28T00:08:07.672Z,99163.56
2022-08-28T00:10:35.548Z,99162.97
2022-08-28T00:13:02.881Z,99156.06
2022-08-28T00:15:32.004Z,99133.09
2022-08-28T00:17:59.660Z,99140.81
2022-08-28T00:20:27.781Z,99147.94
2022-08-28T00:22:55.667Z,99164.53
2022-08-28T00:25:24.512Z,99176.75
2022-08-28T00:27:52.594Z,99179.88
2022-08-28T00:30:25.681Z,99183.41
2022-08-28T00:32:53.951Z,99179.22
2022-08-28T00:35:21.877Z,99186.94
2022-08-28T00:37:50.579Z,99181.22
2022-08-28T00:40:28.437Z,99176.53
2022-08-28T00:43:00.971Z,99182.53
2022-08-28T00:45:28.629Z,99167.47
2022-08-28T00:47:56.491Z,99170.31
2022-08-28T00:50:25.073Z,99167.81
2022-08-28T00:52:53.835Z,99165.75
2022-08-28T00:55:22.569Z,99157.97
2022-08-28T00:57:51.631Z,99148.97
2022-08-28T01:00:24.980Z,99143.62
2022-08-28T01:02:53.203Z,99142.66
2022-08-28T01:05:21.005Z,99147.75
2022-08-28T01:07:48.457Z,99147.44
2022-08-28T01:10:17.302Z,99144.56
2022-08-28T01:12:45.310Z,99135.25
2022-08-28T01:15:14.863Z,99135.69
2022-08-28T01:17:43.364Z,99145.38
2022-08-28T01:20:12.425Z,99145.16
2022-08-28T01:22:41.580Z,99152.66
2022-08-28T01:25:10.528Z,99162.13
2022-08-28T01:27:38.754Z,99169.78
2022-08-28T01:30:06.573Z,99170.25
2022-08-28T01:32:40.530Z,99175.16
2022-08-28T01:35:09.761Z,99177.00
2022-08-28T01:37:37.234Z,99178.41
2022-08-28T01:40:05.264Z,99173.31
2022-08-28T01:42:36.937Z,99180.84
2022-08-28T01:45:04.544Z,99181.97
2022-08-28T01:47:31.833Z,99173.13
2022-08-28T01:49:59.803Z,99176.09
2022-08-28T01:52:27.036Z,99176.00
2022-08-28T01:54:54.349Z,99174.75
2022-08-28T01:57:23.945Z,99171.97
2022-08-28T01:59:51.388Z,99175.25
2022-08-28T02:02:18.890Z,99173.75
2022-08-28T02:04:48.351Z,99154.59
2022-08-28T02:07:17.007Z,99148.19
2022-08-28T02:09:44.388Z,99144.47
2022-08-28T02:12:11.937Z,99141.19
2022-08-28T02:14:39.520Z,99130.91
2022-08-28T02:17:06.781Z,99135.31
2022-08-28T02:19:34.331Z,99140.06
2022-08-28T02:22:01.571Z,99138.81
2022-08-28T02:24:29.422Z,99133.63
2022-08-28T02:26:57.001Z,99120.09
2022-08-28T02:29:26.132Z,99126.19
2022-08-28T02:31:53.385Z,99122.09
2022-08-28T02:34:20.913Z,99122.69
2022-08-28T02:36:48.176Z,99125.81
2022-08-28T02:39:15.498Z,99127.25
2022-08-28T02:41:43.304Z,99121.16
2022-08-28T02:44:10.488Z,99125.06
2022-08-28T02:46:37.787Z,99125.84
2022-08-28T02:49:05.304Z,99140.16
2022-08-28T02:51:33.610Z,99160.03
2022-08-28T02:54:01.372Z,99169.44
2022-08-28T02:56:28.947Z,99167.66
2022-08-28T02:58:56.659Z,99156.00
2022-08-28T03:01:24.190Z,99148.72
2022-08-28T03:03:51.792Z,99153.75
2022-08-28T03:06:19.049Z,99151.81
2022-08-28T03:08:46.397Z,99167.56
2022-08-28T03:11:13.907Z,99168.91
2022-08-28T03:13:42.396Z,99166.22
2022-08-28T03:16:09.751Z,99158.47
2022-08-28T03:18:37.298Z,99163.47
2022-08-28T03:21:04.560Z,99156.97
2022-08-28T03:23:32.082Z,99158.28
2022-08-28T03:26:04.998Z,99161.41
2022-08-28T03:28:38.312Z,99151.22
2022-08-28T03:31:06.542Z,99154.84
2022-08-28T03:33:34.028Z,99154.06
2022-08-28T03:36:01.511Z,99148.09
2022-08-28T03:38:32.343Z,99153.09
2022-08-28T03:40:59.549Z,99149.91
2022-08-28T03:43:27.429Z,99153.41
2022-08-28T03:45:59.169Z,99147.50
2022-08-28T03:48:27.367Z,99147.09
2022-08-28T03:50:56.117Z,99140.63
2022-08-28T03:53:24.073Z,99138.47
2022-08-28T03:55:51.425Z,99134.34
2022-08-28T03:58:19.397Z,99137.50
2022-08-28T04:00:46.723Z,99134.19
2022-08-28T04:03:14.378Z,99128.66
2022-08-28T04:05:45.592Z,99132.31
2022-08-28T04:08:15.941Z,99130.56
2022-08-28T04:10:44.185Z,99130.44
2022-08-28T04:13:11.904Z,99128.00
2022-08-28T04:15:39.519Z,99132.50
2022-08-28T04:18:07.340Z,99129.03
2022-08-28T04:20:34.636Z,99124.44
2022-08-28T04:23:04.082Z,99121.12
2022-08-28T04:25:31.656Z,99131.38
2022-08-28T04:27:59.021Z,99135.59
2022-08-28T04:30:26.237Z,99134.78
2022-08-28T04:32:53.864Z,99137.22
2022-08-28T04:35:21.080Z,99146.38
2022-08-28T04:37:48.450Z,99141.84
2022-08-28T04:40:16.126Z,99147.91
2022-08-28T04:42:45.094Z,99148.37
2022-08-28T04:45:13.589Z,99149.56
2022-08-28T04:47:41.161Z,99151.69
2022-08-28T04:50:08.730Z,99154.59
2022-08-28T04:52:35.980Z,99164.66
2022-08-28T04:55:04.448Z,99161.19
2022-08-28T04:57:35.777Z,99158.62
2022-08-28T05:00:05.207Z,99160.19
2022-08-28T05:02:32.843Z,99161.56
2022-08-28T05:05:00.134Z,99175.19
2022-08-28T05:07:27.642Z,99165.75
2022-08-28T05:09:54.997Z,99175.50
2022-08-28T05:12:22.254Z,99181.34
2022-08-28T05:14:49.882Z,99182.06
2022-08-28T05:17:17.181Z,99184.66
2022-08-28T05:19:44.507Z,99181.22
2022-08-28T05:22:12.057Z,99179.00
2022-08-28T05:24:40.041Z,99164.63
2022-08-28T05:27:07.541Z,99169.38
2022-08-28T05:29:35.090Z,99158.41
2022-08-28T05:32:02.449Z,99156.63
2022-08-28T05:34:29.748Z,99156.53
2022-08-28T05:36:58.007Z,99168.03
2022-08-28T05:39:25.269Z,99161.38
2022-08-28T05:41:52.535Z,99155.50
2022-08-28T05:44:21.056Z,99155.97
2022-08-28T05:46:48.486Z,99145.88
2022-08-28T05:49:17.779Z,99161.66
2022-08-28T05:51:45.722Z,99154.28
2022-08-28T05:54:13.170Z,99159.09
2022-08-28T05:56:40.801Z,99165.75
2022-08-28T05:59:08.679Z,99167.59
2022-08-28T06:01:38.074Z,99164.97
2022-08-28T06:04:10.320Z,99166.94
2022-08-28T06:06:39.309Z,99164.00
2022-08-28T06:09:08.848Z,99161.53
2022-08-28T06:11:36.137Z,99176.47
2022-08-28T06:14:03.685Z,99169.28
2022-08-28T06:16:32.219Z,99172.16
2022-08-28T06:19:00.427Z,99174.50
2022-08-28T06:21:28.259Z,99179.38
2022-08-28T06:23:56.192Z,99184.41
2022-08-28T06:26:23.794Z,99184.87
2022-08-28T06:28:53.126Z,99184.72
2022-08-28T06:31:23.679Z,99187.66
2022-08-28T06:33:54.256Z,99195.59
2022-08-28T06:36:22.293Z,99196.13
2022-08-28T06:38:49.695Z,99196.28
2022-08-28T06:41:19.713Z,99201.22
2022-08-28T06:43:47.565Z,99197.59
2022-08-28T06:46:14.928Z,99202.38
2022-08-28T06:48:42.434Z,99192.56
2022-08-28T06:51:11.375Z,99194.19
2022-08-28T06:53:39.896Z,99205.50
2022-08-28T06:56:11.249Z,99204.19
2022-08-28T06:58:41.830Z,99208.53
2022-08-28T07:01:14.021Z,99212.22
2022-08-28T07:03:42.742Z,99217.28
2022-08-28T07:06:12.720Z,99224.25
2022-08-28T07:08:40.309Z,99221.63
2022-08-28T07:11:14.003Z,99226.16
2022-08-28T07:13:41.926Z,99217.69
2022-08-28T07:16:09.907Z,99218.88
2022-08-28T07:18:37.237Z,99223.66
2022-08-28T07:21:05.686Z,99225.06
2022-08-28T07:23:36.497Z,99221.03
2022-08-28T07:26:08.314Z,99229.91
2022-08-28T07:28:36.036Z,99237.03
2022-08-28T07:31:05.264Z,99236.50
2022-08-28T07:33:33.216Z,99241.44
2022-08-28T07:36:00.811Z,99248.09
2022-08-28T07:38:28.170Z,99240.59
2022-08-28T07:40:55.562Z,99238.34
2022-08-28T07:43:41.904Z,99241.59
2022-08-28T07:46:11.523Z,99242.50
2022-08-28T07:48:39.736Z,99241.78
2022-08-28T07:51:07.592Z,99235.75
2022-08-28T07:53:36.658Z,99240.50
2022-08-28T07:56:04.853Z,99237.34
2022-08-28T07:58:32.905Z,99243.84
2022-08-28T08:01:01.319Z,99243.53
2022-08-28T08:03:29.860Z,99257.50
2022-08-28T08:05:58.092Z,99264.13
2022-08-28T08:08:25.434Z,99260.84
2022-08-28T08:11:16.533Z,99252.75
2022-08-28T08:13:45.324Z,99260.03
2022-08-28T08:16:14.273Z,99256.56
2022-08-28T08:18:41.951Z,99259.31
2022-08-28T08:21:11.460Z,99258.28
2022-08-28T08:23:39.382Z,99262.25
2022-08-28T08:26:08.088Z,99258.09
2022-08-28T08:28:36.673Z,99264.06
2022-08-28T08:31:05.092Z,99265.03
2022-08-28T08:33:32.571Z,99265.28
2022-08-28T08:36:00.533Z,99270.13
2022-08-28T08:38:31.448Z,99270.00
2022-08-28T08:40:59.311Z,99278.72
2022-08-28T08:43:27.501Z,99272.75
2022-08-28T08:45:55.168Z,99265.59
2022-08-28T08:48:28.520Z,99263.06
2022-08-28T08:50:57.907Z,99264.75
2022-08-28T08:53:31.382Z,99267.13
2022-08-28T08:56:00.124Z,99264.97
2022-08-28T08:58:28.036Z,99266.91
2022-08-28T09:00:57.578Z,99267.56
2022-08-28T09:04:00.748Z,99265.88
2022-08-28T09:07:00.619Z,99265.84
2022-08-28T09:09:28.187Z,99277.41
2022-08-28T09:11:57.064Z,99268.94
2022-08-28T09:14:32.239Z,99278.19
2022-08-28T09:16:59.911Z,99278.03
2022-08-28T09:19:27.268Z,99275.00
2022-08-28T09:21:54.660Z,99275.34
2022-08-28T09:24:29.514Z,99277.44
2022-08-28T09:26:58.349Z,99276.03
2022-08-28T09:29:28.642Z,99275.47
2022-08-28T09:31:56.188Z,99286.34
2022-08-28T09:34:24.047Z,99291.03
2022-08-28T09:36:52.601Z,99288.06
2022-08-28T09:39:24.300Z,99290.06
2022-08-28T09:42:18.818Z,99273.81
2022-08-28T09:44:47.328Z,99291.28
2022-08-28T09:47:46.877Z,99284.63
2022-08-28T09:50:29.634Z,99287.13
2022-08-28T09:52:59.166Z,99290.00
2022-08-28T09:55:45.189Z,99280.03
2022-08-28T09:58:13.969Z,99277.75
2022-08-28T10:00:43.752Z,99280.78
2022-08-28T10:03:15.070Z,99276.87
2022-08-28T10:05:46.007Z,99284.25
2022-08-28T10:08:22.372Z,99285.69
2022-08-28T10:10:54.056Z,99280.94
2022-08-28T10:13:31.580Z,99278.88
2022-08-28T10:16:11.987Z,99274.44
2022-08-28T10:18:43.240Z,99279.66
2022-08-28T10:21:22.921Z,99279.41
2022-08-28T10:24:08.511Z,99263.09
2022-08-28T10:26:42.348Z,99267.38
2022-08-28T10:29:12.688Z,99274.63
2022-08-28T10:31:46.188Z,99260.22
2022-08-28T10:34:26.646Z,99267.13
2022-08-28T10:37:04.993Z,99261.34
2022-08-28T10:39:39.874Z,99264.88
2022-08-28T10:42:07.597Z,99260.16
2022-08-28T10:44:40.078Z,99263.03
2022-08-28T10:47:07.534Z,99249.66
2022-08-28T10:49:36.097Z,99249.13
2022-08-28T10:52:05.464Z,99253.28
2022-08-28T10:54:41.631Z,99249.72
2022-08-28T10:57:24.824Z,99254.69
2022-08-28T10:59:52.820Z,99254.13
2022-08-28T11:02:22.382Z,99251.06
2022-08-28T11:04:49.712Z,99245.16
2022-08-28T11:07:21.490Z,99250.41
2022-08-28T11:09:49.181Z,99254.81
2022-08-28T11:12:16.498Z,99247.41
2022-08-28T11:14:48.472Z,99249.84
2022-08-28T11:17:22.870Z,99251.59
2022-08-28T11:19:59.486Z,99252.69
2022-08-28T11:22:27.025Z,99249.94
2022-08-28T11:25:01.705Z,99257.47
2022-08-28T11:27:33.370Z,99253.00
2022-08-28T11:30:11.007Z,99252.09
2022-08-28T11:32:41.381Z,99246.53
2022-08-28T11:35:20.325Z,99252.03
2022-08-28T11:37:48.778Z,99246.84
2022-08-28T11:40:17.713Z,99253.59
2022-08-28T11:42:48.699Z,99242.41
2022-08-28T11:45:20.613Z,99241.88
2022-08-28T11:47:56.688Z,99251.91
2022-08-28T11:50:26.556Z,99246.91
2022-08-28T11:53:17.411Z,99244.41
2022-08-28T11:55:46.988Z,99240.38
2022-08-28T11:58:14.284Z,99232.66
2022-08-28T12:00:50.023Z,99234.84
2022-08-28T12:03:36.882Z,99231.59
2022-08-28T12:06:05.921Z,99238.94
2022-08-28T12:08:46.886Z,99232.44
2022-08-28T12:11:32.863Z,99233.63
2022-08-28T12:14:00.425Z,99225.81
2022-08-28T12:16:27.700Z,99235.53
2022-08-28T12:18:55.411Z,99230.50
2022-08-28T12:21:23.489Z,99229.41
2022-08-28T12:23:58.982Z,99227.25
2022-08-28T12:26:26.816Z,99229.41
2022-08-28T12:29:00.882Z,99231.87
2022-08-28T12:31:48.416Z,99233.03
2022-08-28T12:34:24.985Z,99225.25
2022-08-28T12:36:59.280Z,99228.28
2022-08-28T12:39:26.930Z,99222.19
2022-08-28T12:41:54.538Z,99222.22
2022-08-28T12:44:28.846Z,99218.03
2022-08-28T12:46:56.635Z,99220.81
2022-08-28T12:49:27.242Z,99220.75
2022-08-28T12:52:16.682Z,99214.94
2022-08-28T12:54:45.267Z,99214.94
2022-08-28T12:57:14.031Z,99211.88
2022-08-28T12:59:42.324Z,99220.69
2022-08-28T13:02:13.611Z,99215.63
2022-08-28T13:04:42.892Z,99216.44
2022-08-28T13:07:13.323Z,99209.34
2022-08-28T13:09:47.988Z,99214.47
2022-08-28T13:12:54.925Z,99213.06
2022-08-28T13:15:37.074Z,99213.31
2022-08-28T13:18:04.604Z,99204.91
2022-08-28T13:20:33.026Z,99195.25
2022-08-28T13:23:00.972Z,99201.31
2022-08-28T13:25:31.064Z,99196.06
2022-08-28T13:27:59.391Z,99193.09
2022-08-28T13:30:28.188Z,99194.75
2022-08-28T13:32:57.091Z,99197.53
2022-08-28T13:35:24.366Z,99193.00
2022-08-28T13:37:52.986Z,99202.25
2022-08-28T13:40:55.669Z,99201.44
2022-08-28T13:43:10.988Z,99185.87
2022-08-28T13:45:42.860Z,99183.25
2022-08-28T13:48:15.794Z,99181.16
2022-08-28T13:50:46.854Z,99181.31
2022-08-28T13:53:16.083Z,99176.06
2022-08-28T13:55:44.020Z,99176.41
2022-08-28T13:58:11.358Z,99169.84
2022-08-28T14:00:39.976Z,99168.84
2022-08-28T14:03:26.289Z,99168.91
2022-08-28T14:05:54.314Z,99168.31
2022-08-28T14:08:22.015Z,99170.84
2022-08-28T14:10:49.443Z,99160.03
2022-08-28T14:13:17.355Z,99161.94
2022-08-28T14:15:45.672Z,99157.56
2022-08-28T14:18:13.013Z,99155.63
2022-08-28T14:20:40.438Z,99152.06
2022-08-28T14:23:08.811Z,99153.63
2022-08-28T14:25:42.447Z,99153.13
2022-08-28T14:28:10.354Z,99148.44
2022-08-28T14:30:43.999Z,99153.41
2022-08-28T14:33:11.624Z,99157.88
2022-08-28T14:35:39.818Z,99166.66
2022-08-28T14:38:07.599Z,99168.59
2022-08-28T14:40:44.701Z,99164.16
2022-08-28T14:43:12.633Z,99167.81
2022-08-28T14:45:47.153Z,99168.28
2022-08-28T14:48:14.881Z,99161.19
2022-08-28T14:50:43.153Z,99161.00
2022-08-28T14:53:11.045Z,99167.72
2022-08-28T14:55:39.424Z,99157.84
2022-08-28T14:58:07.025Z,99165.03
2022-08-28T15:00:38.246Z,99164.47
2022-08-28T15:03:05.601Z,99168.13
2022-08-28T15:05:34.112Z,99167.66
2022-08-28T15:08:01.737Z,99174.97
2022-08-28T15:10:29.516Z,99168.38
2022-08-28T15:12:57.042Z,99174.53
2022-08-28T15:15:26.203Z,99167.88
2022-08-28T15:17:53.533Z,99172.84
2022-08-28T15:20:21.312Z,99168.72
2022-08-28T15:22:48.662Z,99171.25
2022-08-28T15:25:16.060Z,99174.03
2022-08-28T15:27:43.624Z,99175.00
2022-08-28T15:30:11.691Z,99176.09
2022-08-28T15:32:40.184Z,99178.87
2022-08-28T15:35:07.921Z,99179.97
2022-08-28T15:37:35.390Z,99177.13
2022-08-28T15:40:21.186Z,99180.53
2022-08-28T15:42:48.819Z,99182.41
2022-08-28T15:45:16.936Z,99179.19
2022-08-28T15:47:44.170Z,99175.53
2022-08-28T15:50:11.724Z,99178.72
2022-08-28T15:52:39.098Z,99177.75
2022-08-28T15:55:06.618Z,99180.41
2022-08-28T15:57:34.201Z,99170.41
2022-08-28T16:00:01.945Z,99178.72
2022-08-28T16:02:32.091Z,99170.16
2022-08-28T16:04:59.812Z,99172.25
2022-08-28T16:07:27.098Z,99176.81
2022-08-28T16:09:54.449Z,99169.94
2022-08-28T16:12:22.901Z,99175.19
2022-08-28T16:14:50.380Z,99176.28
2022-08-28T16:17:18.738Z,99177.25
2022-08-28T16:19:47.596Z,99173.41
2022-08-28T16:22:18.228Z,99170.37
2022-08-28T16:24:45.523Z,99164.22
2022-08-28T16:27:15.356Z,99169.66
2022-08-28T16:29:45.986Z,99162.94
2022-08-28T16:32:17.053Z,99171.00
2022-08-28T16:35:56.905Z,99167.91
2022-08-28T16:37:39.873Z,99177.34
2022-08-28T16:40:08.901Z,99183.31
2022-08-28T16:42:36.542Z,99186.75
2022-08-28T16:45:04.462Z,99182.34
2022-08-28T16:47:33.042Z,99186.25
2022-08-28T16:50:01.857Z,99194.66
2022-08-28T16:52:29.116Z,99190.91
2022-08-28T16:54:56.417Z,99196.06
2022-08-28T16:57:24.026Z,99201.25
2022-08-28T16:59:53.506Z,99202.44
2022-08-28T17:02:25.368Z,99206.88
2022-08-28T17:04:54.520Z,99213.50
2022-08-28T17:07:21.850Z,99219.03
2022-08-28T17:09:49.181Z,99224.53
2022-08-28T17:12:16.818Z,99227.06
2022-08-28T17:14:44.918Z,99222.97
2022-08-28T17:17:12.236Z,99230.94
2022-08-28T17:19:40.097Z,99232.97
2022-08-28T17:22:27.471Z,99239.87
2022-08-28T17:24:55.377Z,99234.28
2022-08-28T17:27:23.491Z,99237.56
2022-08-28T17:29:50.977Z,99232.56
2022-08-28T17:32:18.607Z,99240.09
2022-08-28T17:34:46.040Z,99241.22
2022-08-28T17:37:13.338Z,99242.00
2022-08-28T17:39:40.958Z,99251.19
2022-08-28T17:42:08.849Z,99252.75
2022-08-28T17:44:36.484Z,99264.66
2022-08-28T17:47:04.185Z,99267.44
2022-08-28T17:49:31.495Z,99269.94
2022-08-28T17:51:58.936Z,99275.09
2022-08-28T17:54:26.557Z,99274.50
2022-08-28T17:56:54.568Z,99279.47
2022-08-28T17:59:23.562Z,99285.50
2022-08-28T18:01:51.319Z,99278.03
2022-08-28T18:04:23.891Z,99278.28
2022-08-28T18:06:54.298Z,99277.22
2022-08-28T18:09:22.900Z,99278.88
2022-08-28T18:11:50.634Z,99275.47
2022-08-28T18:14:18.264Z,99275.78
2022-08-28T18:16:45.959Z,99279.59
2022-08-28T18:19:13.940Z,99279.00
2022-08-28T18:21:41.407Z,99282.06
2022-08-28T18:24:10.386Z,99277.00
2022-08-28T18:26:37.876Z,99280.22
2022-08-28T18:29:05.494Z,99285.69
2022-08-28T18:31:33.499Z,99289.50
2022-08-28T18:34:01.089Z,99290.22
2022-08-28T18:36:30.335Z,99298.84
2022-08-28T18:38:58.291Z,99296.75
2022-08-28T18:41:41.549Z,99293.47
2022-08-28T18:44:13.482Z,99293.47
2022-08-28T18:46:41.479Z,99297.28
2022-08-28T18:49:09.692Z,99297.53
2022-08-28T18:51:37.464Z,99295.59
2022-08-28T18:54:04.947Z,99296.94
2022-08-28T18:56:33.992Z,99305.69
2022-08-28T18:59:03.988Z,99303.88
2022-08-28T19:01:32.450Z,99307.00
2022-08-28T19:03:59.898Z,99317.34
2022-08-28T19:06:28.663Z,99314.84
2022-08-28T19:08:56.057Z,99318.19
2022-08-28T19:11:23.424Z,99311.16
2022-08-28T19:13:52.075Z,99313.50
2022-08-28T19:16:19.649Z,99320.78
2022-08-28T19:18:47.844Z,99320.47
2022-08-28T19:21:16.622Z,99320.38
2022-08-28T19:23:53.842Z,99324.28
2022-08-28T19:26:26.945Z,99322.84
2022-08-28T19:28:54.773Z,99334.59
2022-08-28T19:31:22.993Z,99337.16
2022-08-28T19:33:51.021Z,99336.00
2022-08-28T19:36:18.698Z,99341.00
2022-08-28T19:38:46.003Z,99338.63
2022-08-28T19:41:14.885Z,99352.22
2022-08-28T19:43:44.237Z,99342.59
2022-08-28T19:46:18.637Z,99352.78
2022-08-28T19:48:49.192Z,99349.91
2022-08-28T19:51:17.582Z,99356.88
2022-08-28T19:53:57.408Z,99359.56
2022-08-28T19:56:29.923Z,99370.75
2022-08-28T19:58:59.205Z,99357.09
2022-08-28T20:01:30.305Z,99362.38
2022-08-28T20:03:59.526Z,99358.88
2022-08-28T20:06:27.489Z,99372.59
2022-08-28T20:08:55.047Z,99376.72
2022-08-28T20:11:25.296Z,99372.75
2022-08-28T20:13:57.776Z,99370.44
2022-08-28T20:16:27.477Z,99370.69
2022-08-28T20:18:55.510Z,99381.16
2022-08-28T20:21:37.475Z,99383.06
2022-08-28T20:24:07.465Z,99382.72
2022-08-28T20:26:34.918Z,99383.63
2022-08-28T20:29:02.398Z,99382.91
2022-08-28T20:31:30.023Z,99375.59
2022-08-28T20:33:57.454Z,99375.00
2022-08-28T20:36:26.304Z,99383.94
2022-08-28T20:38:54.420Z,99379.75
2022-08-28T20:41:22.693Z,99382.63
2022-08-28T20:43:50.160Z,99386.00
2022-08-28T20:46:17.763Z,99387.66
2022-08-28T20:48:45.175Z,99391.44
2022-08-28T20:51:12.506Z,99387.91
2022-08-28T20:53:40.222Z,99397.81
2022-08-28T20:56:08.499Z,99393.84
2022-08-28T20:58:35.971Z,99399.44
2022-08-28T21:01:03.706Z,99400.06
2022-08-28T21:03:31.001Z,99397.91
2022-08-28T21:05:58.299Z,99397.81
2022-08-28T21:08:25.898Z,99392.69
2022-08-28T21:10:53.208Z,99399.81
2022-08-28T21:13:20.645Z,99395.66
2022-08-28T21:15:48.283Z,99394.69
2022-08-28T21:18:15.986Z,99397.16
2022-08-28T21:20:43.576Z,99402.59
2022-08-28T21:23:11.402Z,99401.63
2022-08-28T21:25:40.249Z,99404.72
2022-08-28T21:28:07.777Z,99414.94
2022-08-28T21:30:35.521Z,99414.56
2022-08-28T21:33:02.865Z,99411.44
2022-08-28T21:35:30.202Z,99416.31
2022-08-28T21:37:57.739Z,99416.19
2022-08-28T21:40:25.094Z,99413.44
2022-08-28T21:42:52.407Z,99418.62
2022-08-28T21:45:20.108Z,99412.19
2022-08-28T21:47:47.429Z,99412.25
2022-08-28T21:50:14.732Z,99413.44
2022-08-28T21:52:42.288Z,99403.94
2022-08-28T21:55:11.430Z,99414.44
2022-08-28T21:57:38.681Z,99416.78
2022-08-28T22:00:09.241Z,99402.91
2022-08-28T22:02:36.494Z,99398.87
2022-08-28T22:05:04.361Z,99406.78
2022-08-28T22:07:31.819Z,99404.69
2022-08-28T22:09:59.044Z,99407.19
2022-08-28T22:12:26.591Z,99403.94
2022-08-28T22:14:54.230Z,99408.50
2022-08-28T22:17:21.473Z,99403.00
2022-08-28T22:19:49.047Z,99404.63
2022-08-28T22:22:35.110Z,99408.75
2022-08-28T22:25:03.179Z,99408.34
2022-08-28T22:27:31.998Z,99403.22
2022-08-28T22:29:59.824Z,99407.59
2022-08-28T22:32:27.882Z,99407.34
2022-08-28T22:34:55.816Z,99422.28
2022-08-28T22:37:23.382Z,99406.97
2022-08-28T22:39:50.996Z,99413.66
2022-08-28T22:42:18.266Z,99412.97
2022-08-28T22:44:46.875Z,99411.91
2022-08-28T22:47:14.551Z,99411.34
2022-08-28T22:49:41.806Z,99411.41
2022-08-28T22:52:09.923Z,99410.88
2022-08-28T22:54:37.556Z,99414.44
2022-08-28T22:57:05.914Z,99410.75
2022-08-28T22:59:33.604Z,99408.09
2022-08-28T23:02:01.388Z,99408.25
2022-08-28T23:04:28.814Z,99402.84
2022-08-28T23:06:56.254Z,99409.19
2022-08-28T23:09:23.771Z,99406.47
2022-08-28T23:11:51.377Z,99408.34
2022-08-28T23:14:18.601Z,99422.53
2022-08-28T23:16:46.166Z,99423.66
2022-08-28T23:19:13.746Z,99426.78
2022-08-28T23:21:43.685Z,99426.50
2022-08-28T23:24:12.744Z,99428.78
2022-08-28T23:26:40.102Z,99430.75
2022-08-28T23:29:07.326Z,99430.97
2022-08-28T23:31:35.199Z,99428.28
2022-08-28T23:34:02.867Z,99430.06
2022-08-28T23:36:32.448Z,99427.25
2022-08-28T23:39:03.392Z,99433.62
2022-08-28T23:41:31.007Z,99439.75
2022-08-28T23:43:58.276Z,99436.91
2022-08-28T23:46:25.895Z,99430.72
2022-08-28T23:48:53.136Z,99426.75
2022-08-28T23:51:21.969Z,99434.25
2022-08-28T23:53:49.850Z,99435.44
2022-08-28T23:56:17.303Z,99426.59
2022-08-28T23:58:45.620Z,99424.13
